Pattersonville, Ohio
Current Conditions -  °F | °C
As of 3:19 AM on Tuesday 21 Oct 2014 (Local Time) from KCAK Reporting Station
Haze Haze  
Wind Chill: 52°   Ceiling: 800
Heat Index: 52°   Visibility: 2.5mi
Dew Point: 48°   Wind: 5mph
Humidity: 88%   Direction: 260°W
Pressure: 29.84"   Gusts: NA
Location:  40.7427°N, 81.0929°W
Report Text: KCAK 210719Z 26004KT 2 1/2SM BR FEW004 OVC008 11/09 A2984 RMK AO2 CIG 006V012 $
Loading
Personal Weather Stations






























Interactive Weather Map
Tropical Storm Tracking
New forecast layout! Learn more

10-Day Weather Forecast

Advertisements
Track Severe Weather on mobile